Latest Weather Observations for Douglas River

IDD60801

Issued at 9:05 pm CST Sunday 23 November 2014 (issued every 30 minutes, with the page automatically refreshed every 10 minutes)

About weather observations | Map of weather stations | Latest weather observations for NT | Other Formats
Station Details ID: 014901 Name: DOUGLAS RIVER Lat: -13.83 Lon: 131.19 Height: 42.8 m
Data from the previous 72 hours. | See also: Recent months at Douglas River
Date/Time
CST
Temp
°C
App
Temp
°C
Dew
Point
Rel
Hum
%
Delta-T
°C
Wind Press
QNH
hPa
Press
MSL
hPa
Rain
since 9 am
mm
Dir
 
Spd
km/h
Gust
km/h
Spd
kts
Gust
kts
23/09:00pm 30.8 33.7 24.5 69 4.4 WNW 17 32 9 17 1008.1 1007.8 0.0
23/08:30pm 31.6 34.9 24.5 66 5.0 WNW 15 26 8 14 1007.8 1007.5 0.0
23/08:00pm 32.7 35.8 21.5 51 7.6 NW 7 19 4 10 1007.1 1006.7 0.0
23/07:30pm 33.1 36.5 19.3 44 9.1 CALM 0 2 0 1 1006.5 1006.1 0.0
23/07:00pm 33.8 37.3 19.6 43 9.4 CALM 0 0 0 0 1006.5 1006.1 0.0
23/06:30pm 35.0 38.7 19.9 41 10.1 CALM 0 0 0 0 1006.2 1005.8 0.0
23/06:00pm 36.8 38.4 17.8 32 12.4 NNE 6 9 3 5 1006.0 1005.6 0.0
23/05:30pm 38.4 39.7 17.6 29 13.6 ENE 7 13 4 7 1006.0 1005.6 0.0
23/05:00pm 38.8 40.6 18.8 31 13.3 ENE 7 13 4 7 1005.5 1005.1 0.0
23/04:30pm 39.3 41.1 18.3 29 13.9 N 6 11 3 6 1005.9 1005.5 0.0
23/04:00pm 39.6 40.4 17.3 27 14.6 ENE 9 17 5 9 1006.2 1005.8 0.0
23/03:30pm 39.4 41.0 18.2 29 14.0 E 7 15 4 8 1006.6 1006.2 0.0
23/03:00pm 39.6 39.9 17.9 28 14.3 E 13 19 7 10 1007.0 1006.6 0.0
23/02:30pm 38.4 40.1 18.4 31 13.2 N 7 13 4 7 1007.7 1007.4 0.0
23/02:00pm 37.9 40.1 20.5 36 11.8 SW 9 17 5 9 1008.2 1007.9 0.0
23/01:30pm 36.6 39.5 21.0 40 10.6 NW 7 15 4 8 1008.8 1008.5 0.0
23/01:00pm 37.5 40.7 21.6 39 10.9 N 7 11 4 6 1009.4 1009.1 0.0
23/12:30pm 36.1 39.2 21.5 42 10.0 N 7 13 4 7 1010.0 1009.7 0.0
23/12:00pm 35.8 38.5 21.4 43 9.8 NE 9 13 5 7 1010.6 1010.3 0.0
23/11:30am 34.8 38.1 21.8 46 8.9 N 7 13 4 7 1011.0 1010.7 0.0
23/11:00am 34.1 37.8 22.6 51 7.9 NNW 7 11 4 6 1011.3 1011.0 0.0
23/10:30am 32.0 36.1 23.3 60 6.0 W 7 13 4 7 1011.7 1011.4 0.0
23/10:00am 32.7 36.7 23.8 59 6.2 NW 9 13 5 7 1011.6 1011.3 0.0
23/09:30am 32.2 36.7 23.6 60 6.0 W 6 9 3 5 1011.7 1011.4 0.0
23/09:00am 31.2 36.3 24.0 65 5.0 WNW 4 9 2 5 1011.8 1011.5 0.2
23/08:30am 30.4 35.4 24.5 70 4.1 N 6 7 3 4 1011.9 1011.6 0.2
23/08:00am 29.3 35.9 25.2 78 2.9 CALM 0 6 0 3 1011.8 1011.5 0.2
23/07:30am 27.7 33.8 25.1 86 1.8 NNE 2 7 1 4 1011.7 1011.4 0.2
23/07:00am 26.5 32.6 25.1 92 1.0 NNE 2 6 1 3 1011.4 1011.1 0.2
23/06:30am 25.6 31.7 24.4 93 0.8 CALM 0 6 0 3 1011.0 1010.7 0.2
23/06:00am 25.4 31.5 24.4 94 0.7 CALM 0 0 0 0 1010.6 1010.3 0.2
23/05:30am 25.6 31.6 24.3 92 0.9 CALM 0 0 0 0 1010.2 1009.9 0.2
23/05:00am 25.5 31.6 24.5 94 0.7 CALM 0 0 0 0 1010.0 1009.7 0.2
23/04:30am 25.6 31.7 24.4 93 0.8 CALM 0 0 0 0 1009.8 1009.5 0.2
23/04:00am 26.1 32.0 24.1 89 1.4 CALM 0 0 0 0 1009.5 1009.2 0.2
23/03:30am 26.4 32.2 23.9 86 1.7 CALM 0 0 0 0 1009.6 1009.3 0.2
23/03:00am 26.3 32.4 24.4 89 1.3 CALM 0 0 0 0 1009.9 1009.6 0.2
23/02:30am 26.5 32.6 24.5 89 1.4 CALM 0 0 0 0 1010.0 1009.7 0.2
23/02:00am 26.7 32.3 23.6 83 2.1 CALM 0 0 0 0 1010.1 1009.8 0.2
23/01:30am 26.7 31.6 23.6 83 2.1 N 4 7 2 4 1010.5 1010.2 0.2
23/01:00am 26.7 32.6 24.1 86 1.8 CALM 0 0 0 0 1010.7 1010.4 0.2
23/12:30am 27.3 33.0 23.7 81 2.5 CALM 0 0 0 0 1011.0 1010.7 0.2
23/12:00am 27.5 33.1 23.6 79 2.7 CALM 0 0 0 0 1011.0 1010.7 0.2
 
Date/Time
CST
Temp
°C
App
Temp
°C
Dew
Point
Rel
Hum
%
Delta-T
°C
Wind Press
QNH
hPa
Press
MSL
hPa
Rain
since 9 am
mm
Dir
 
Spd
km/h
Gust
km/h
Spd
kts
Gust
kts
22/11:30pm 28.0 33.2 23.5 76 3.1 WNW 2 7 1 4 1011.2 1010.9 0.2
22/11:00pm 28.4 33.6 23.5 75 3.4 NW 2 9 1 5 1011.0 1010.7 0.2
22/10:30pm 28.7 32.8 23.0 71 3.9 NNW 6 7 3 4 1010.9 1010.6 0.2
22/10:00pm 29.2 32.9 22.6 67 4.5 WNW 7 11 4 6 1010.6 1010.3 0.2
22/09:30pm 29.6 32.9 23.2 68 4.4 WNW 11 17 6 9 1010.2 1009.9 0.2
22/09:00pm 29.8 33.3 23.6 69 4.3 WNW 11 24 6 13 1009.5 1009.2 0.2
22/08:30pm 30.5 33.8 23.9 68 4.6 WNW 13 26 7 14 1008.9 1008.6 0.2
22/08:00pm 31.6 34.6 22.6 59 6.2 WNW 11 20 6 11 1008.4 1008.1 0.2
22/07:30pm 32.1 35.7 22.1 55 6.8 WNW 6 9 3 5 1007.8 1007.5 0.2
22/07:00pm 32.9 36.8 22.6 54 7.1 NW 6 9 3 5 1007.5 1007.1 0.2
22/06:30pm 33.8 37.3 21.1 47 8.6 NW 4 13 2 7 1007.5 1007.1 0.2
22/06:00pm 34.4 38.7 21.1 45 9.0 CALM 0 0 0 0 1007.1 1006.7 0.2
22/05:30pm 36.0 39.4 19.3 37 11.1 CALM 0 0 0 0 1007.0 1006.6 0.2
22/05:00pm 37.4 39.9 19.1 34 12.2 NE 4 7 2 4 1006.6 1006.2 0.2
22/04:30pm 38.1 39.9 18.4 31 13.0 NNE 6 13 3 7 1006.4 1006.0 0.2
22/04:00pm 38.8 40.4 18.2 30 13.6 NE 7 15 4 8 1006.7 1006.3 0.2
22/03:30pm 38.4 40.3 19.0 32 12.9 NNE 7 15 4 8 1007.1 1006.7 0.2
22/03:00pm 38.0 40.2 19.7 34 12.3 ENE 7 15 4 8 1007.6 1007.3 0.2
22/02:30pm 37.6 39.6 19.9 35 11.9 SE 9 15 5 8 1007.9 1007.6 0.2
22/02:00pm 36.4 39.1 20.2 38 10.9 NNW 6 11 3 6 1008.7 1008.4 0.2
22/01:30pm 36.2 39.3 21.4 42 10.1 ENE 7 17 4 9 1009.6 1009.3 0.2
22/01:00pm 35.7 38.5 20.9 42 10.0 WSW 7 13 4 7 1009.9 1009.6 0.2
22/12:30pm 35.7 38.1 20.9 42 10.0 SE 9 15 5 8 1010.4 1010.1 0.2
22/12:00pm 35.4 38.9 21.8 45 9.3 N 6 9 3 5 1011.0 1010.7 0.2
22/11:30am 34.1 37.6 21.8 48 8.4 N 6 11 3 6 1011.6 1011.3 0.2
22/11:00am 33.5 38.0 22.9 53 7.3 WNW 4 7 2 4 1012.0 1011.7 0.2
22/10:30am 32.1 36.5 23.4 60 6.0 WSW 6 9 3 5 1012.3 1012.0 0.2
22/10:00am 31.2 36.5 25.0 69 4.4 E 6 9 3 5 1012.8 1012.5 0.2
22/09:30am 30.0 36.1 25.0 74 3.5 NNE 2 6 1 3 1012.8 1012.5 0.0
22/09:00am 29.2 34.4 24.8 77 3.1 ENE 6 11 3 6 1012.6 1012.3 12.0
22/08:30am 28.0 33.5 24.6 82 2.4 NNE 4 7 2 4 1012.1 1011.8 12.0
22/08:00am 26.8 32.8 24.3 86 1.7 CALM 0 6 0 3 1011.8 1011.5 12.0
22/07:30am 25.8 30.5 23.9 89 1.3 E 6 9 3 5 1011.8 1011.5 12.0
22/07:00am 24.8 30.0 23.6 93 0.8 NNE 2 7 1 4 1011.3 1011.0 12.0
22/06:30am 24.3 29.8 23.4 95 0.6 CALM 0 0 0 0 1010.9 1010.6 12.0
22/06:00am 24.2 29.8 23.6 96 0.4 CALM 0 0 0 0 1010.1 1009.8 12.0
22/05:30am 24.2 29.8 23.6 96 0.4 CALM 0 0 0 0 1009.7 1009.4 12.0
22/05:00am 24.3 30.0 23.7 96 0.4 CALM 0 0 0 0 1009.8 1009.5 12.0
22/04:30am 24.4 30.0 23.5 95 0.6 CALM 0 0 0 0 1009.7 1009.4 12.0
22/04:00am 24.4 30.0 23.5 95 0.6 CALM 0 0 0 0 1009.5 1009.2 12.0
22/03:30am 24.3 29.6 23.1 93 0.8 CALM 0 0 0 0 1009.4 1009.1 12.0
22/03:00am 24.1 29.3 22.9 93 0.8 CALM 0 0 0 0 1009.1 1008.8 12.0
22/02:30am 24.2 29.5 23.0 93 0.8 CALM 0 0 0 0 1009.1 1008.8 12.0
22/02:00am 24.2 29.4 22.9 92 0.9 CALM 0 0 0 0 1009.2 1008.9 12.0
22/01:30am 24.0 29.0 22.5 91 1.0 CALM 0 0 0 0 1009.5 1009.2 12.0
22/01:00am 24.0 29.3 23.0 94 0.7 CALM 0 0 0 0 1009.8 1009.5 12.0
22/12:30am 23.9 29.1 22.9 94 0.7 CALM 0 0 0 0 1010.1 1009.8 12.0
22/12:00am 23.8 28.5 22.0 90 1.2 CALM 0 0 0 0 1010.1 1009.8 12.0
 
Date/Time
CST
Temp
°C
App
Temp
°C
Dew
Point
Rel
Hum
%
Delta-T
°C
Wind Press
QNH
hPa
Press
MSL
hPa
Rain
since 9 am
mm
Dir
 
Spd
km/h
Gust
km/h
Spd
kts
Gust
kts
21/11:30pm 24.0 28.7 21.9 88 1.4 CALM 0 0 0 0 1010.2 1009.9 12.0
21/11:00pm 24.2 28.1 22.6 91 1.1 WNW 6 9 3 5 1010.7 1010.4 12.0
21/10:30pm 24.4 27.6 22.3 88 1.4 SSW 9 15 5 8 1010.0 1009.7 12.0
21/10:00pm 23.7 26.9 22.4 92 0.9 SE 9 19 5 10 1009.5 1009.2 12.0
21/09:30pm 23.5 26.6 21.5 88 1.3 WNW 7 15 4 8 1008.7 1008.4 12.0
21/09:00pm 22.8 25.0 21.1 90 1.1 N 11 20 6 11 1009.7 1009.4 8.6
21/08:42pm 26.0 27.6 21.5 76 3.0 NNE 15 26 8 14 1010.5 1010.2 0.0
21/08:40pm 26.6 28.0 21.0 71 3.7 NNE 15 26 8 14 1010.4 - 0.0
21/08:30pm 31.5 34.9 23.4 62 5.6 WNW 11 19 6 10 1009.3 1009.0 0.0
21/08:00pm 31.7 33.5 23.3 61 5.8 W 19 32 10 17 1007.5 1007.1 0.0
21/07:30pm 32.2 34.7 23.2 59 6.2 WNW 15 30 8 16 1008.3 1008.0 0.0
21/07:22pm 32.4 34.5 23.1 58 6.4 WNW 17 30 9 16 1008.3 - 0.0
21/07:00pm 33.2 35.4 23.3 56 6.9 WNW 17 28 9 15 1007.1 1006.7 0.0
21/06:30pm 35.7 38.1 18.7 36 11.2 N 4 26 2 14 1006.4 1006.0 0.0
21/06:00pm 36.5 38.3 18.8 35 11.7 N 7 13 4 7 1006.1 1005.7 0.0
21/05:30pm 39.0 40.9 18.5 30 13.6 N 6 9 3 5 1005.8 1005.4 0.0
21/05:00pm 39.8 41.1 17.6 27 14.6 NNW 7 15 4 8 1005.6 1005.2 0.0
21/04:30pm 40.0 41.1 17.0 26 15.0 NNE 7 11 4 6 1005.8 1005.4 0.0
21/04:00pm 39.5 40.4 16.7 26 14.8 NE 7 15 4 8 1006.0 1005.6 0.0
21/03:30pm 39.7 40.8 17.2 27 14.7 NNE 7 13 4 7 1006.4 1006.0 0.0
21/03:00pm 39.5 40.4 16.7 26 14.8 N 7 13 4 7 1006.8 1006.4 0.0
21/02:30pm 39.8 40.7 17.6 27 14.6 NNE 9 19 5 10 1007.0 1006.6 0.0
21/02:00pm 38.1 39.7 18.2 31 13.1 N 7 13 4 7 1007.5 1007.1 0.0
21/01:30pm 37.7 39.0 18.5 32 12.7 W 9 19 5 10 1007.9 1007.6 0.0
21/01:00pm 37.8 39.7 19.8 35 12.1 N 9 15 5 8 1008.7 1008.4 0.0
21/12:30pm 35.6 37.4 20.3 40 10.3 W 11 19 6 10 1009.4 1009.1 0.0
21/12:00pm 35.4 38.2 21.5 44 9.5 WNW 9 17 5 9 1009.8 1009.5 0.0
21/11:30am 35.4 38.7 21.8 45 9.3 NNE 7 15 4 8 1010.5 1010.2 0.0
21/11:00am 34.8 37.6 22.3 48 8.6 W 11 15 6 8 1010.9 1010.6 0.0
21/10:30am 33.8 36.5 22.1 50 8.0 W 11 19 6 10 1011.4 1011.1 0.0
21/10:00am 32.3 35.0 22.9 57 6.5 WNW 13 19 7 10 1011.8 1011.5 0.0
21/09:30am 32.4 35.7 22.5 56 6.8 WNW 9 15 5 8 1012.1 1011.8 0.0
21/09:00am 30.9 34.2 23.8 66 4.9 WSW 13 19 7 10 1012.0 1011.7 -
21/08:30am 30.5 34.3 24.0 68 4.5 WNW 11 15 6 8 1012.0 1011.7 -
21/08:00am 29.4 34.4 23.9 72 3.8 NNW 4 7 2 4 1011.9 1011.6 -
21/07:30am 28.0 33.6 23.5 76 3.1 CALM 0 0 0 0 1011.7 1011.4 -
21/07:00am 26.4 31.8 23.3 83 2.1 CALM 0 0 0 0 1011.5 1011.2 -
21/06:30am 25.8 31.1 23.0 84 1.9 CALM 0 0 0 0 1011.0 1010.7 -
21/06:00am 25.8 31.2 23.2 85 1.8 CALM 0 0 0 0 1010.7 1010.4 0.0
21/05:30am 25.8 31.1 23.0 84 1.9 CALM 0 0 0 0 1010.3 1010.0 0.0
21/05:00am 25.3 30.4 22.6 85 1.8 CALM 0 0 0 0 1010.1 1009.8 0.0
21/04:30am 25.8 31.0 22.9 84 2.0 CALM 0 0 0 0 1009.9 1009.6 0.0
21/04:00am 25.9 31.2 23.0 84 2.0 CALM 0 0 0 0 1009.5 1009.2 0.0
21/03:30am 26.0 31.2 22.8 82 2.2 CALM 0 0 0 0 1009.3 1009.0 0.0
21/03:00am 26.2 31.3 22.7 81 2.4 CALM 0 0 0 0 1009.3 1009.0 0.0
21/02:30am 26.2 31.3 22.7 81 2.4 CALM 0 0 0 0 1009.4 1009.1 0.0
21/02:00am 27.1 32.3 22.8 77 2.9 CALM 0 0 0 0 1009.5 1009.2 0.0
21/01:30am 27.3 32.4 22.6 75 3.2 CALM 0 0 0 0 1009.5 1009.2 0.0
21/01:00am 27.7 32.8 22.7 74 3.4 CALM 0 0 0 0 1009.7 1009.4 0.0
21/12:30am 28.0 32.7 22.7 73 3.6 NW 2 7 1 4 1009.9 1009.6 0.0
21/12:00am 28.2 32.8 22.5 71 3.9 N 2 6 1 3 1010.1 1009.8 0.0
 
Date/Time
CST
Temp
°C
App
Temp
°C
Dew
Point
Rel
Hum
%
Delta-T
°C
Wind Press
QNH
hPa
Press
MSL
hPa
Rain
since 9 am
mm
Dir
 
Spd
km/h
Gust
km/h
Spd
kts
Gust
kts
20/11:30pm 28.6 32.9 22.6 70 4.1 NNW 4 9 2 5 1010.2 1009.9 0.0
20/11:00pm 28.9 33.2 22.7 69 4.2 NNW 4 7 2 4 1010.1 1009.8 0.0
20/10:30pm 29.4 33.2 22.8 67 4.5 WNW 7 13 4 7 1009.9 1009.6 0.0
20/10:00pm 29.7 33.3 23.0 67 4.6 WNW 9 17 5 9 1009.4 1009.1 0.0
20/09:30pm 30.1 33.6 22.8 65 5.0 NW 9 15 5 8 1009.2 1008.9 0.0

Other Formats:

Comma delimited format used in spreadsheet applications
http://www.bom.gov.au/fwo/IDD60801/IDD60801.94128.axf

JavaScript Object Notation format (JSON) in row-major order
http://www.bom.gov.au/fwo/IDD60801/IDD60801.94128.json